createdAt,value
2023-04-24T00:01:45.037Z,20.30
2023-04-24T00:04:15.333Z,20.30
2023-04-24T00:06:43.825Z,20.30
2023-04-24T00:09:13.099Z,20.30
2023-04-24T00:11:41.097Z,20.30
2023-04-24T00:14:08.954Z,20.30
2023-04-24T00:16:36.835Z,20.30
2023-04-24T00:19:05.681Z,20.30
2023-04-24T00:21:33.728Z,20.30
2023-04-24T00:24:01.642Z,20.30
2023-04-24T00:26:30.877Z,20.20
2023-04-24T00:28:58.730Z,20.30
2023-04-24T00:31:28.383Z,20.20
2023-04-24T00:33:56.269Z,20.30
2023-04-24T00:36:24.227Z,20.20
2023-04-24T00:38:52.184Z,20.20
2023-04-24T00:41:20.094Z,20.20
2023-04-24T00:43:49.489Z,20.20
2023-04-24T00:46:18.630Z,20.20
2023-04-24T00:48:46.734Z,20.20
2023-04-24T00:51:15.046Z,20.20
2023-04-24T00:53:42.901Z,20.20
2023-04-24T00:56:11.476Z,20.20
2023-04-24T00:58:40.810Z,20.20
2023-04-24T01:01:12.740Z,20.20
2023-04-24T01:03:42.184Z,20.20
2023-04-24T01:06:12.029Z,20.20
2023-04-24T01:08:41.865Z,20.10
2023-04-24T01:11:09.752Z,20.10
2023-04-24T01:13:37.598Z,20.10
2023-04-24T01:16:05.822Z,20.10
2023-04-24T01:18:38.047Z,20.10
2023-04-24T01:21:06.503Z,20.10
2023-04-24T01:23:35.850Z,20.10
2023-04-24T01:26:04.036Z,20.10
2023-04-24T01:28:32.235Z,20.10
2023-04-24T01:31:01.363Z,20.10
2023-04-24T01:33:29.483Z,20.10
2023-04-24T01:35:57.564Z,20.10
2023-04-24T01:38:26.070Z,20.10
2023-04-24T01:40:55.965Z,20.10
2023-04-24T01:43:24.205Z,20.10
2023-04-24T01:45:52.110Z,20.10
2023-04-24T01:48:20.220Z,20.10
2023-04-24T01:50:48.311Z,20.00
2023-04-24T01:53:16.488Z,20.10
2023-04-24T01:55:44.575Z,20.10
2023-04-24T01:58:16.156Z,20.00
2023-04-24T02:00:44.026Z,20.00
2023-04-24T02:03:12.165Z,20.00
2023-04-24T02:05:40.203Z,20.00
2023-04-24T02:08:08.139Z,20.00
2023-04-24T02:10:39.178Z,20.00
2023-04-24T02:13:07.087Z,20.00
2023-04-24T02:15:36.924Z,20.00
2023-04-24T02:18:05.363Z,20.00
2023-04-24T02:20:35.002Z,20.00
2023-04-24T02:23:03.071Z,20.00
2023-04-24T02:25:31.100Z,20.00
2023-04-24T02:27:58.937Z,20.00
2023-04-24T02:30:28.030Z,20.00
2023-04-24T02:32:57.204Z,20.00
2023-04-24T02:35:25.315Z,20.00
2023-04-24T02:37:53.202Z,19.90
2023-04-24T02:40:21.297Z,19.90
2023-04-24T02:42:49.240Z,19.90
2023-04-24T02:45:17.373Z,19.90
2023-04-24T02:47:45.918Z,19.90
2023-04-24T02:50:15.808Z,19.90
2023-04-24T02:52:43.725Z,19.90
2023-04-24T02:55:11.838Z,19.90
2023-04-24T02:57:39.664Z,19.90
2023-04-24T03:00:10.137Z,19.90
2023-04-24T03:02:38.200Z,19.90
2023-04-24T03:05:08.417Z,19.90
2023-04-24T03:07:37.810Z,19.90
2023-04-24T03:10:08.189Z,19.90
2023-04-24T03:12:36.076Z,19.90
2023-04-24T03:15:04.628Z,19.90
2023-04-24T03:17:32.603Z,19.90
2023-04-24T03:20:00.596Z,19.90
2023-04-24T03:22:28.594Z,19.90
2023-04-24T03:24:57.880Z,19.80
2023-04-24T03:27:26.660Z,19.80
2023-04-24T03:30:01.889Z,19.80
2023-04-24T03:32:45.988Z,19.80
2023-04-24T03:35:17.048Z,19.80
2023-04-24T03:37:45.033Z,19.80
2023-04-24T03:40:34.584Z,19.80
2023-04-24T03:43:03.608Z,19.80
2023-04-24T03:45:31.613Z,19.80
2023-04-24T03:47:59.550Z,19.70
2023-04-24T03:50:30.046Z,19.70
2023-04-24T03:52:58.080Z,19.70
2023-04-24T03:55:37.545Z,19.70
2023-04-24T03:58:05.689Z,19.70
2023-04-24T04:00:34.115Z,19.70
2023-04-24T04:03:22.230Z,19.70
2023-04-24T04:05:50.798Z,19.70
2023-04-24T04:08:18.698Z,19.70
2023-04-24T04:10:47.982Z,19.60
2023-04-24T04:13:15.901Z,19.60
2023-04-24T04:15:43.907Z,19.60
2023-04-24T04:18:12.128Z,19.60
2023-04-24T04:20:40.655Z,19.60
2023-04-24T04:23:08.712Z,19.60
2023-04-24T04:25:48.794Z,19.60
2023-04-24T04:28:20.783Z,19.60
2023-04-24T04:30:50.059Z,19.60
2023-04-24T04:33:19.978Z,19.60
2023-04-24T04:35:49.692Z,19.60
2023-04-24T04:38:18.720Z,19.60
2023-04-24T04:40:59.619Z,19.60
2023-04-24T04:43:31.832Z,19.60
2023-04-24T04:46:01.653Z,19.60
2023-04-24T04:48:33.486Z,19.60
2023-04-24T04:51:03.291Z,19.50
2023-04-24T04:53:31.460Z,19.50
2023-04-24T04:56:01.665Z,19.50
2023-04-24T04:58:36.654Z,19.50
2023-04-24T05:01:06.070Z,19.50
2023-04-24T05:03:38.987Z,19.50
2023-04-24T05:06:10.887Z,19.50
2023-04-24T05:08:42.123Z,19.50
2023-04-24T05:11:15.863Z,19.50
2023-04-24T05:13:43.888Z,19.50
2023-04-24T05:16:21.585Z,19.50
2023-04-24T05:18:51.453Z,19.50
2023-04-24T05:21:23.598Z,19.50
2023-04-24T05:23:53.281Z,19.50
2023-04-24T05:26:39.421Z,19.50
2023-04-24T05:29:08.872Z,19.50
2023-04-24T05:31:36.836Z,19.50
2023-04-24T05:34:04.863Z,19.50
2023-04-24T05:36:33.776Z,19.50
2023-04-24T05:39:01.653Z,19.50
2023-04-24T05:41:29.530Z,19.50
2023-04-24T05:43:58.986Z,19.50
2023-04-24T05:46:26.928Z,19.50
2023-04-24T05:48:54.816Z,19.50
2023-04-24T05:51:22.791Z,19.50
2023-04-24T05:53:50.653Z,19.50
2023-04-24T05:56:19.448Z,19.50
2023-04-24T05:58:48.309Z,19.50
2023-04-24T06:01:17.628Z,19.50
2023-04-24T06:03:49.508Z,19.60
2023-04-24T06:06:17.614Z,19.60
2023-04-24T06:08:46.424Z,19.60
2023-04-24T06:11:14.706Z,19.60
2023-04-24T06:13:42.668Z,19.60
2023-04-24T06:16:32.903Z,19.60
2023-04-24T06:19:06.758Z,19.60
2023-04-24T06:21:34.684Z,19.60
2023-04-24T06:24:02.732Z,19.70
2023-04-24T06:26:31.087Z,19.70
2023-04-24T06:29:01.120Z,19.70
2023-04-24T06:31:30.482Z,19.70
2023-04-24T06:33:58.333Z,19.70
2023-04-24T06:36:26.196Z,19.70
2023-04-24T06:38:54.103Z,19.80
2023-04-24T06:41:21.999Z,19.80
2023-04-24T06:43:49.886Z,19.80
2023-04-24T06:46:17.947Z,19.80
2023-04-24T06:48:47.264Z,19.80
2023-04-24T06:51:15.135Z,19.90
2023-04-24T06:53:42.963Z,19.90
2023-04-24T06:56:10.905Z,19.90
2023-04-24T06:58:38.799Z,19.90
2023-04-24T07:01:07.228Z,19.90
2023-04-24T07:03:35.490Z,19.90
2023-04-24T07:06:06.982Z,20.00
2023-04-24T07:08:34.970Z,20.00
2023-04-24T07:11:03.003Z,20.00
2023-04-24T07:13:31.378Z,20.00
2023-04-24T07:15:59.354Z,20.00
2023-04-24T07:18:27.537Z,20.00
2023-04-24T07:20:55.544Z,20.00
2023-04-24T07:23:24.727Z,20.10
2023-04-24T07:25:52.657Z,20.10
2023-04-24T07:28:20.572Z,20.10
2023-04-24T07:30:48.417Z,20.10
2023-04-24T07:33:16.338Z,20.10
2023-04-24T07:35:44.547Z,20.10
2023-04-24T07:38:12.396Z,20.10
2023-04-24T07:40:41.634Z,20.10
2023-04-24T07:43:09.459Z,20.20
2023-04-24T07:45:38.286Z,20.20
2023-04-24T07:48:06.416Z,20.20
2023-04-24T07:50:35.710Z,20.20
2023-04-24T07:53:03.852Z,20.20
2023-04-24T07:55:32.150Z,20.20
2023-04-24T07:58:01.368Z,20.20
2023-04-24T08:00:29.258Z,20.30
2023-04-24T08:02:57.254Z,20.30
2023-04-24T08:05:26.856Z,20.30
2023-04-24T08:07:55.496Z,20.30
2023-04-24T08:10:24.262Z,20.30
2023-04-24T08:12:52.240Z,20.30
2023-04-24T08:15:21.554Z,20.30
2023-04-24T08:17:49.500Z,20.30
2023-04-24T08:20:17.412Z,20.30
2023-04-24T08:22:48.150Z,20.40
2023-04-24T08:25:16.153Z,20.40
2023-04-24T08:27:44.549Z,20.40
2023-04-24T08:30:13.282Z,20.40
2023-04-24T08:32:42.567Z,20.40
2023-04-24T08:35:11.084Z,20.40
2023-04-24T08:37:39.328Z,20.40
2023-04-24T08:40:15.085Z,20.40
2023-04-24T08:42:45.116Z,20.40
2023-04-24T08:45:15.091Z,20.40
2023-04-24T08:47:45.422Z,20.40
2023-04-24T08:50:14.061Z,20.40
2023-04-24T08:52:44.218Z,20.50
2023-04-24T08:55:12.339Z,20.50
2023-04-24T08:57:41.382Z,20.50
2023-04-24T09:00:14.406Z,20.50
2023-04-24T09:02:45.598Z,20.50
2023-04-24T09:05:16.010Z,20.50
2023-04-24T09:07:51.377Z,20.50
2023-04-24T09:10:19.301Z,20.50
2023-04-24T09:12:48.411Z,20.50
2023-04-24T09:15:16.977Z,20.50
2023-04-24T09:17:46.605Z,20.50
2023-04-24T09:20:14.683Z,20.60
2023-04-24T09:22:43.831Z,20.60
2023-04-24T09:25:13.498Z,20.60
2023-04-24T09:27:45.640Z,20.60
2023-04-24T09:30:15.451Z,20.60
2023-04-24T09:32:45.869Z,20.60
2023-04-24T09:35:15.854Z,20.60
2023-04-24T09:37:45.823Z,20.60
2023-04-24T09:40:17.640Z,20.60
2023-04-24T09:42:47.531Z,20.60
2023-04-24T09:45:16.261Z,20.70
2023-04-24T09:47:46.617Z,20.70
2023-04-24T09:50:19.316Z,20.70
2023-04-24T09:52:58.691Z,20.70
2023-04-24T09:55:27.665Z,20.70
2023-04-24T09:58:01.002Z,20.70
2023-04-24T10:00:31.571Z,20.80
2023-04-24T10:03:03.504Z,20.80
2023-04-24T10:05:33.583Z,20.80
2023-04-24T10:08:06.367Z,20.80
2023-04-24T10:10:39.214Z,20.80
2023-04-24T10:13:08.947Z,20.90
2023-04-24T10:15:37.487Z,20.90
2023-04-24T10:18:08.078Z,20.90
2023-04-24T10:20:38.264Z,20.90
2023-04-24T10:23:07.502Z,21.00
2023-04-24T10:25:38.042Z,21.00
2023-04-24T10:28:09.759Z,21.00
2023-04-24T10:30:39.024Z,21.00
2023-04-24T10:33:10.801Z,21.00
2023-04-24T10:35:49.892Z,21.00
2023-04-24T10:38:26.204Z,21.00
2023-04-24T10:41:00.047Z,21.00
2023-04-24T10:43:28.029Z,21.10
2023-04-24T10:46:06.909Z,21.00
2023-04-24T10:48:36.635Z,21.10
2023-04-24T10:51:04.790Z,21.10
2023-04-24T10:53:33.196Z,21.10
2023-04-24T10:56:06.735Z,21.10
2023-04-24T10:58:46.019Z,21.10
2023-04-24T11:01:27.488Z,21.00
2023-04-24T11:03:59.738Z,21.10
2023-04-24T11:06:33.446Z,21.10
2023-04-24T11:09:07.107Z,21.10
2023-04-24T11:11:36.026Z,21.10
2023-04-24T11:14:07.425Z,21.10
2023-04-24T11:16:41.023Z,21.10
2023-04-24T11:19:19.479Z,21.10
2023-04-24T11:21:50.073Z,21.10
2023-04-24T11:24:32.830Z,21.10
2023-04-24T11:27:08.640Z,21.10
2023-04-24T11:29:49.668Z,21.10
2023-04-24T11:32:26.859Z,21.10
2023-04-24T11:34:58.157Z,21.10
2023-04-24T11:37:30.233Z,21.10
2023-04-24T11:40:01.531Z,21.20
2023-04-24T11:42:35.295Z,21.20
2023-04-24T11:45:03.756Z,21.20
2023-04-24T11:47:34.625Z,21.20
2023-04-24T11:50:06.679Z,21.20
2023-04-24T11:52:39.044Z,21.20
2023-04-24T11:55:10.466Z,21.20
2023-04-24T11:57:38.603Z,21.20
2023-04-24T12:00:09.257Z,21.20
2023-04-24T12:02:40.812Z,21.30
2023-04-24T12:05:12.955Z,21.20
2023-04-24T12:07:44.580Z,21.20
2023-04-24T12:10:13.030Z,21.30
2023-04-24T12:12:41.023Z,21.30
2023-04-24T12:15:11.104Z,21.30
2023-04-24T12:17:44.254Z,21.30
2023-04-24T12:20:16.388Z,21.30
2023-04-24T12:22:48.985Z,21.30
2023-04-24T12:25:18.569Z,21.30
2023-04-24T12:27:48.015Z,21.40
2023-04-24T12:30:18.484Z,21.40
2023-04-24T12:32:49.854Z,21.40
2023-04-24T12:35:24.939Z,21.30
2023-04-24T12:37:52.921Z,21.40
2023-04-24T12:40:23.947Z,21.40
2023-04-24T12:42:54.709Z,21.40
2023-04-24T12:45:24.859Z,21.40
2023-04-24T12:47:52.831Z,21.40
2023-04-24T12:50:22.158Z,21.40
2023-04-24T12:52:50.111Z,21.40
2023-04-24T12:55:17.934Z,21.40
2023-04-24T12:57:46.957Z,21.50
2023-04-24T13:00:18.665Z,21.40
2023-04-24T13:02:48.168Z,21.50
2023-04-24T13:05:16.538Z,21.50
2023-04-24T13:07:45.681Z,21.50
2023-04-24T13:10:14.271Z,21.50
2023-04-24T13:12:42.353Z,21.50
2023-04-24T13:15:11.017Z,21.50
2023-04-24T13:17:39.070Z,21.50
2023-04-24T13:20:08.506Z,21.50
2023-04-24T13:22:37.610Z,21.50
2023-04-24T13:25:08.842Z,21.50
2023-04-24T13:27:36.872Z,21.50
2023-04-24T13:30:05.756Z,21.50
2023-04-24T13:32:36.233Z,21.50
2023-04-24T13:35:04.516Z,21.60
2023-04-24T13:37:32.592Z,21.60
2023-04-24T13:40:00.516Z,21.60
2023-04-24T13:42:30.265Z,21.60
2023-04-24T13:44:58.113Z,21.60
2023-04-24T13:47:26.120Z,21.60
2023-04-24T13:49:54.950Z,21.60
2023-04-24T13:52:22.830Z,21.60
2023-04-24T13:54:50.719Z,21.60
2023-04-24T13:57:18.640Z,21.60
2023-04-24T13:59:47.855Z,21.60
2023-04-24T14:02:15.801Z,21.60
2023-04-24T14:04:43.873Z,21.60
2023-04-24T14:07:11.873Z,21.60
2023-04-24T14:09:39.728Z,21.60
2023-04-24T14:12:07.947Z,21.60
2023-04-24T14:14:35.944Z,21.60
2023-04-24T14:17:05.207Z,21.60
2023-04-24T14:19:33.189Z,21.60
2023-04-24T14:22:02.128Z,21.60
2023-04-24T14:24:29.973Z,21.60
2023-04-24T14:26:58.146Z,21.60
2023-04-24T14:29:26.875Z,21.60
2023-04-24T14:31:54.742Z,21.60
2023-04-24T14:34:23.928Z,21.60
2023-04-24T14:36:51.845Z,21.60
2023-04-24T14:39:19.670Z,21.60
2023-04-24T14:41:47.512Z,21.60
2023-04-24T14:44:15.473Z,21.60
2023-04-24T14:46:43.960Z,21.60
2023-04-24T14:49:13.382Z,21.60
2023-04-24T14:51:43.614Z,21.60
2023-04-24T14:54:11.592Z,21.60
2023-04-24T14:56:41.839Z,21.60
2023-04-24T14:59:09.909Z,21.60
2023-04-24T15:01:38.108Z,21.60
2023-04-24T15:04:06.518Z,21.60
2023-04-24T15:06:34.794Z,21.60
2023-04-24T15:09:04.331Z,21.60
2023-04-24T15:11:32.361Z,21.60
2023-04-24T15:14:00.541Z,21.50
2023-04-24T15:16:28.554Z,21.60
2023-04-24T15:18:58.055Z,21.60
2023-04-24T15:21:25.986Z,21.50
2023-04-24T15:23:53.837Z,21.50
2023-04-24T15:26:24.139Z,21.50
2023-04-24T15:28:52.737Z,21.50
2023-04-24T15:31:21.359Z,21.50
2023-04-24T15:33:50.610Z,21.50
2023-04-24T15:36:19.537Z,21.50
2023-04-24T15:38:47.431Z,21.50
2023-04-24T15:41:15.398Z,21.40
2023-04-24T15:43:44.646Z,21.40
2023-04-24T15:46:13.251Z,21.40
2023-04-24T15:48:42.176Z,21.40
2023-04-24T15:51:10.099Z,21.40
2023-04-24T15:53:38.031Z,21.40
2023-04-24T15:56:06.627Z,21.40
2023-04-24T15:58:34.896Z,21.30
2023-04-24T16:01:04.104Z,21.40
2023-04-24T16:03:32.435Z,21.40
2023-04-24T16:06:00.465Z,21.40
2023-04-24T16:08:28.320Z,21.40
2023-04-24T16:10:56.240Z,21.40
2023-04-24T16:13:24.118Z,21.30
2023-04-24T16:15:52.488Z,21.30
2023-04-24T16:18:22.444Z,21.30
2023-04-24T16:20:52.099Z,21.30
2023-04-24T16:23:20.065Z,21.30
2023-04-24T16:25:48.033Z,21.30
2023-04-24T16:28:16.111Z,21.30
2023-04-24T16:30:43.958Z,21.30
2023-04-24T16:33:11.872Z,21.30
2023-04-24T16:35:41.129Z,21.30
2023-04-24T16:38:09.350Z,21.30
2023-04-24T16:40:37.199Z,21.20
2023-04-24T16:43:05.089Z,21.20
2023-04-24T16:45:33.099Z,21.20
2023-04-24T16:48:02.357Z,21.20
2023-04-24T16:50:30.402Z,21.10
2023-04-24T16:52:59.656Z,21.10
2023-04-24T16:55:27.538Z,21.10
2023-04-24T16:57:56.122Z,21.10
2023-04-24T17:00:24.178Z,21.10
2023-04-24T17:02:52.143Z,21.10
2023-04-24T17:05:23.337Z,21.10
2023-04-24T17:07:51.379Z,21.00
2023-04-24T17:10:20.654Z,21.00
2023-04-24T17:12:48.515Z,21.00
2023-04-24T17:15:16.562Z,21.00
2023-04-24T17:17:46.120Z,21.00
2023-04-24T17:20:22.291Z,21.00
2023-04-24T17:22:52.576Z,20.90
2023-04-24T17:25:22.136Z,20.90
2023-04-24T17:27:50.326Z,20.90
2023-04-24T17:30:18.542Z,20.90
2023-04-24T17:32:46.803Z,20.90
2023-04-24T17:35:14.730Z,20.90
2023-04-24T17:37:42.691Z,20.90
2023-04-24T17:40:12.451Z,20.90
2023-04-24T17:42:42.334Z,20.80
2023-04-24T17:45:12.070Z,20.80
2023-04-24T17:47:40.387Z,20.80
2023-04-24T17:50:09.111Z,20.80
2023-04-24T17:52:36.995Z,20.80
2023-04-24T17:55:05.802Z,20.70
2023-04-24T17:57:33.930Z,20.70
2023-04-24T18:00:03.806Z,20.70
2023-04-24T18:02:33.834Z,20.70
2023-04-24T18:05:01.917Z,20.70
2023-04-24T18:07:30.236Z,20.60
2023-04-24T18:09:58.057Z,20.60
2023-04-24T18:12:26.075Z,20.60
2023-04-24T18:15:02.993Z,20.60
2023-04-24T18:17:42.725Z,20.60
2023-04-24T18:20:12.237Z,20.50
2023-04-24T18:22:40.613Z,20.50
2023-04-24T18:25:09.694Z,20.50
2023-04-24T18:27:37.821Z,20.50
2023-04-24T18:30:07.627Z,20.50
2023-04-24T18:32:35.880Z,20.50
2023-04-24T18:35:06.440Z,20.40
2023-04-24T18:37:34.505Z,20.40
2023-04-24T18:40:03.519Z,20.40
2023-04-24T18:42:31.511Z,20.40
2023-04-24T18:45:02.310Z,20.40
2023-04-24T18:47:30.675Z,20.40
2023-04-24T18:49:58.762Z,20.40
2023-04-24T18:52:28.159Z,20.30
2023-04-24T18:54:56.032Z,20.30
2023-04-24T18:57:24.047Z,20.30
2023-04-24T18:59:52.029Z,20.30
2023-04-24T19:02:20.205Z,20.30
2023-04-24T19:04:48.209Z,20.30
2023-04-24T19:07:16.274Z,20.20
2023-04-24T19:09:45.637Z,20.10
2023-04-24T19:12:13.647Z,20.20
2023-04-24T19:14:41.597Z,20.10
2023-04-24T19:17:10.116Z,20.10
2023-04-24T19:19:38.158Z,20.10
2023-04-24T19:22:07.564Z,20.10
2023-04-24T19:24:36.078Z,20.10
2023-04-24T19:27:05.365Z,20.10
2023-04-24T19:29:33.267Z,20.00
2023-04-24T19:32:01.232Z,20.00
2023-04-24T19:34:30.660Z,20.00
2023-04-24T19:36:58.610Z,19.90
2023-04-24T19:39:26.796Z,20.00
2023-04-24T19:41:56.680Z,20.00
2023-04-24T19:44:25.854Z,19.90
2023-04-24T19:46:54.004Z,19.90
2023-04-24T19:49:21.871Z,19.90
2023-04-24T19:51:50.018Z,19.90
2023-04-24T19:54:20.037Z,19.90
2023-04-24T19:56:47.954Z,19.80
2023-04-24T19:59:15.844Z,19.80
2023-04-24T20:01:45.320Z,19.80
2023-04-24T20:04:13.409Z,19.80
2023-04-24T20:06:41.349Z,19.80
2023-04-24T20:09:09.453Z,19.80
2023-04-24T20:11:37.787Z,19.70
2023-04-24T20:14:06.256Z,19.70
2023-04-24T20:16:34.526Z,19.70
2023-04-24T20:19:03.743Z,19.70
2023-04-24T20:21:32.068Z,19.70
2023-04-24T20:24:00.039Z,19.70
2023-04-24T20:26:27.941Z,19.60
2023-04-24T20:28:55.829Z,19.60
2023-04-24T20:31:23.809Z,19.60
2023-04-24T20:33:51.733Z,19.60
2023-04-24T20:36:21.070Z,19.60
2023-04-24T20:38:49.285Z,19.50
2023-04-24T20:41:17.499Z,19.50
2023-04-24T20:43:45.530Z,19.50
2023-04-24T20:46:13.454Z,19.50
2023-04-24T20:48:41.434Z,19.50
2023-04-24T20:51:09.304Z,19.50
2023-04-24T20:53:38.525Z,19.50
2023-04-24T20:56:08.691Z,19.40
2023-04-24T20:58:36.571Z,19.40
2023-04-24T21:01:04.659Z,19.40
2023-04-24T21:03:32.697Z,19.40
2023-04-24T21:06:00.814Z,19.40
2023-04-24T21:08:28.935Z,19.40
2023-04-24T21:10:58.180Z,19.30
2023-04-24T21:13:26.365Z,19.30
2023-04-24T21:15:54.276Z,19.30
2023-04-24T21:18:22.271Z,19.30
2023-04-24T21:20:51.696Z,19.30
2023-04-24T21:23:19.558Z,19.30
2023-04-24T21:25:47.728Z,19.20
2023-04-24T21:28:17.232Z,19.20
2023-04-24T21:30:45.359Z,19.20
2023-04-24T21:33:13.544Z,19.20
2023-04-24T21:35:41.413Z,19.20
2023-04-24T21:38:09.310Z,19.20
2023-04-24T21:40:37.229Z,19.10
2023-04-24T21:43:05.144Z,19.10
2023-04-24T21:45:34.449Z,19.10
2023-04-24T21:48:02.352Z,19.10
2023-04-24T21:50:30.742Z,19.10
2023-04-24T21:52:58.607Z,19.00
2023-04-24T21:55:26.869Z,19.00
2023-04-24T21:57:55.164Z,19.00
2023-04-24T22:00:23.231Z,19.00
2023-04-24T22:02:52.542Z,18.90
2023-04-24T22:05:21.021Z,18.90
2023-04-24T22:07:50.711Z,18.90
2023-04-24T22:10:18.931Z,18.90
2023-04-24T22:12:46.816Z,18.80
2023-04-24T22:15:14.651Z,18.80
2023-04-24T22:17:43.495Z,18.80
2023-04-24T22:20:13.853Z,18.80
2023-04-24T22:22:41.789Z,18.80
2023-04-24T22:25:11.033Z,18.70
2023-04-24T22:27:38.976Z,18.70
2023-04-24T22:30:09.781Z,18.70
2023-04-24T22:32:38.626Z,18.60
2023-04-24T22:35:09.159Z,18.60
2023-04-24T22:37:38.371Z,18.60
2023-04-24T22:40:08.446Z,18.60
2023-04-24T22:42:36.947Z,18.60
2023-04-24T22:45:05.819Z,18.50
2023-04-24T22:47:33.817Z,18.50
2023-04-24T22:50:03.331Z,18.50
2023-04-24T22:52:32.475Z,18.40
2023-04-24T22:55:01.720Z,18.40
2023-04-24T22:57:29.725Z,18.40
2023-04-24T22:59:57.944Z,18.40
2023-04-24T23:02:25.959Z,18.40
2023-04-24T23:04:54.314Z,18.40
2023-04-24T23:07:22.193Z,18.40
2023-04-24T23:09:50.053Z,18.40
2023-04-24T23:12:19.246Z,18.30
2023-04-24T23:14:47.084Z,18.30
2023-04-24T23:17:14.939Z,18.30
2023-04-24T23:19:42.810Z,18.30
2023-04-24T23:22:11.115Z,18.30
2023-04-24T23:24:39.113Z,18.30
2023-04-24T23:27:07.014Z,18.30
2023-04-24T23:29:36.410Z,18.20
2023-04-24T23:32:04.409Z,18.20
2023-04-24T23:34:33.914Z,18.20
2023-04-24T23:37:02.138Z,18.20
2023-04-24T23:39:29.963Z,18.20
2023-04-24T23:41:59.562Z,18.20
2023-04-24T23:44:27.383Z,18.20
2023-04-24T23:46:57.311Z,18.10
2023-04-24T23:49:25.401Z,18.10
2023-04-24T23:51:53.295Z,18.10
2023-04-24T23:54:21.464Z,18.10
2023-04-24T23:56:51.130Z,18.10
2023-04-24T23:59:20.582Z,18.10
